Time;durP1;ratioP1;P1;durP2;ratioP2;P2;SDS_P1;SDS_P2;PMS_P1;PMS_P2;Temp;Humidity;BMP_temperature;BMP_pressure;BME280_temperature;BME280_humidity;BME280_pressure;Samples;Min_cycle;Max_cycle;Signal;HPM_P1;HPM_P2
2021/06/19 00:01:06;;;;;;;;;;;24.50;73.80;;;;;;5013583;28;20001;-67
2021/06/19 00:03:31;;;;;;;;;;;24.50;74.80;;;;;;5010807;28;20325;-69
2021/06/19 00:05:57;;;;;;;;;;;24.50;75.70;;;;;;5013826;28;19939;-68
2021/06/19 00:08:24;;;;;;;;;;;24.50;75.80;;;;;;5012072;28;20101;-67
2021/06/19 00:10:50;;;;;;;;;;;24.70;74.90;;;;;;5016015;28;19940;-68
2021/06/19 00:13:15;;;;;;;;;;;24.80;74.50;;;;;;5011606;28;20365;-68
2021/06/19 00:15:41;;;;;;;;;;;24.70;74.60;;;;;;5016106;28;19928;-68
2021/06/19 00:18:06;;;;;;;;;;;24.70;74.60;;;;;;5012640;28;20006;-68
2021/06/19 00:20:32;;;;;;;;;;;24.70;74.80;;;;;;5010191;28;19913;-67
2021/06/19 00:22:58;;;;;;;;;;;24.60;75.60;;;;;;5010825;28;19913;-68
2021/06/19 00:25:24;;;;;;;;;;;24.50;76.50;;;;;;5014599;28;19928;-67
2021/06/19 00:27:50;;;;;;;;;;;24.50;76.10;;;;;;5012517;28;19952;-68
2021/06/19 00:30:16;;;;;;;;;;;24.30;76.80;;;;;;5009485;28;19933;-68
2021/06/19 00:32:42;;;;;;;;;;;24.20;77.40;;;;;;5011326;28;19921;-68
2021/06/19 00:35:08;;;;;;;;;;;24.00;78.40;;;;;;5009232;28;20119;-68
2021/06/19 00:37:34;;;;;;;;;;;24.00;78.50;;;;;;5013400;28;20038;-68
2021/06/19 00:40:00;;;;;;;;;;;24.00;78.50;;;;;;5015558;28;20039;-66
2021/06/19 00:42:26;;;;;;;;;;;24.00;78.90;;;;;;5008882;28;19925;-68
2021/06/19 00:44:51;;;;;;;;;;;23.90;79.50;;;;;;5014733;28;19940;-68
2021/06/19 00:47:16;;;;;;;;;;;23.90;79.30;;;;;;5011806;28;20387;-66
2021/06/19 00:49:42;;;;;;;;;;;23.90;79.30;;;;;;5011325;28;20065;-66
2021/06/19 00:52:08;;;;;;;;;;;23.80;79.70;;;;;;5013363;28;19917;-68
2021/06/19 00:54:34;;;;;;;;;;;23.80;80.10;;;;;;5006520;28;20276;-67
2021/06/19 00:57:00;;;;;;;;;;;23.70;80.90;;;;;;5025390;28;19928;-66
2021/06/19 00:59:26;;;;;;;;;;;23.60;81.20;;;;;;5013669;28;20784;-68
2021/06/19 01:01:52;;;;;;;;;;;23.60;80.90;;;;;;5010218;28;19949;-69
2021/06/19 01:04:18;;;;;;;;;;;23.50;81.60;;;;;;5017482;28;19913;-67
2021/06/19 01:06:44;;;;;;;;;;;23.50;82.20;;;;;;5020052;28;19920;-67
2021/06/19 01:09:10;;;;;;;;;;;23.40;83.00;;;;;;5020599;28;20400;-68
2021/06/19 01:11:39;;;;;;;;;;;23.50;83.10;;;;;;5017539;28;19969;-67
2021/06/19 01:14:05;;;;;;;;;;;23.50;82.60;;;;;;5015315;28;19963;-67
2021/06/19 01:16:31;;;;;;;;;;;23.40;83.50;;;;;;5016941;28;19917;-68
2021/06/19 01:18:57;;;;;;;;;;;23.30;83.90;;;;;;5018306;28;19921;-66
2021/06/19 01:21:23;;;;;;;;;;;23.20;83.60;;;;;;5016313;28;20003;-68
2021/06/19 01:23:49;;;;;;;;;;;23.10;84.00;;;;;;5015256;28;19913;-67
2021/06/19 01:26:19;;;;;;;;;;;23.10;84.50;;;;;;5019141;28;19977;-68
2021/06/19 01:28:49;;;;;;;;;;;23.00;83.90;;;;;;5016813;28;20012;-67
2021/06/19 01:31:14;;;;;;;;;;;23.00;85.10;;;;;;5020478;28;19924;-68
2021/06/19 01:33:44;;;;;;;;;;;23.00;84.30;;;;;;5018941;28;20146;-67
2021/06/19 01:36:10;;;;;;;;;;;22.90;85.20;;;;;;5020565;28;19925;-68
2021/06/19 01:38:44;;;;;;;;;;;22.80;85.60;;;;;;5017367;28;20363;-68
2021/06/19 01:41:20;;;;;;;;;;;22.80;85.90;;;;;;5020167;28;19929;-68
2021/06/19 01:43:46;;;;;;;;;;;22.70;85.50;;;;;;5018630;28;19917;-68
2021/06/19 01:46:13;;;;;;;;;;;22.60;86.00;;;;;;5019656;28;20739;-68
2021/06/19 01:48:39;;;;;;;;;;;22.50;86.80;;;;;;5015240;28;19917;-68
2021/06/19 01:51:08;;;;;;;;;;;22.50;86.70;;;;;;5018577;28;19995;-68
2021/06/19 01:53:34;;;;;;;;;;;22.50;87.10;;;;;;5016965;28;19921;-68
2021/06/19 01:55:59;;;;;;;;;;;22.50;85.50;;;;;;5016716;28;19928;-67
2021/06/19 01:58:25;;;;;;;;;;;22.50;86.70;;;;;;5017498;28;19913;-68
2021/06/19 02:00:50;;;;;;;;;;;22.50;85.80;;;;;;5018461;28;20476;-66
2021/06/19 02:03:16;;;;;;;;;;;22.40;87.00;;;;;;5014060;28;19921;-66
2021/06/19 02:05:41;;;;;;;;;;;22.40;86.50;;;;;;5020459;28;19913;-68
2021/06/19 02:08:07;;;;;;;;;;;22.30;86.40;;;;;;5020402;28;19932;-67
2021/06/19 02:10:35;;;;;;;;;;;22.30;86.70;;;;;;5018824;28;19913;-67
2021/06/19 02:13:01;;;;;;;;;;;22.30;86.00;;;;;;5019756;28;19987;-67
2021/06/19 02:15:27;;;;;;;;;;;22.30;86.50;;;;;;5021515;28;19921;-68
2021/06/19 02:17:55;;;;;;;;;;;22.20;88.00;;;;;;5018070;28;21356;-67
2021/06/19 02:20:20;;;;;;;;;;;22.10;88.40;;;;;;5018294;28;20363;-68
2021/06/19 02:22:46;;;;;;;;;;;22.10;88.10;;;;;;5014018;28;19913;-68
2021/06/19 02:25:13;;;;;;;;;;;22.10;88.90;;;;;;5020741;28;19932;-66
2021/06/19 02:27:46;;;;;;;;;;;22.00;89.50;;;;;;5022236;28;20459;-69
2021/06/19 02:30:12;;;;;;;;;;;22.00;88.70;;;;;;5024019;28;19936;-68
2021/06/19 02:32:38;;;;;;;;;;;22.00;89.00;;;;;;5022904;28;19988;-69
2021/06/19 02:35:05;;;;;;;;;;;22.00;89.60;;;;;;5022932;28;19968;-66
2021/06/19 02:37:31;;;;;;;;;;;21.90;89.60;;;;;;5021414;28;20270;-67
2021/06/19 02:39:56;;;;;;;;;;;21.80;90.20;;;;;;5022730;28;19947;-66
2021/06/19 02:42:22;;;;;;;;;;;22.00;89.60;;;;;;5022477;28;20011;-68
2021/06/19 02:44:47;;;;;;;;;;;21.90;90.10;;;;;;5023519;28;19913;-68
2021/06/19 02:47:13;;;;;;;;;;;21.90;90.30;;;;;;5022450;28;19990;-66
2021/06/19 02:49:38;;;;;;;;;;;22.00;89.80;;;;;;5022432;28;19932;-67
2021/06/19 02:52:04;;;;;;;;;;;22.00;90.00;;;;;;5020054;28;20336;-69
2021/06/19 02:54:29;;;;;;;;;;;22.00;89.80;;;;;;5019928;28;19921;-68
2021/06/19 02:56:55;;;;;;;;;;;22.00;89.40;;;;;;5019507;28;19948;-68
2021/06/19 02:59:20;;;;;;;;;;;22.00;89.80;;;;;;5019412;28;19921;-66
2021/06/19 03:01:46;;;;;;;;;;;22.00;89.70;;;;;;5021492;28;19913;-68
2021/06/19 03:04:13;;;;;;;;;;;22.00;89.50;;;;;;5021140;28;19920;-69
2021/06/19 03:06:38;;;;;;;;;;;22.00;90.20;;;;;;5024282;28;19913;-67
2021/06/19 03:09:04;;;;;;;;;;;22.00;90.20;;;;;;5021228;28;20028;-66
2021/06/19 03:11:30;;;;;;;;;;;22.00;90.60;;;;;;5017135;28;19921;-68
2021/06/19 03:13:57;;;;;;;;;;;22.00;90.10;;;;;;5022654;28;19952;-68
2021/06/19 03:16:22;;;;;;;;;;;22.00;89.90;;;;;;5021910;28;20206;-68
2021/06/19 03:18:48;;;;;;;;;;;22.00;90.50;;;;;;5020791;28;19924;-67
2021/06/19 03:21:13;;;;;;;;;;;22.00;90.50;;;;;;5018689;28;19913;-66
2021/06/19 03:23:39;;;;;;;;;;;22.00;90.70;;;;;;5022345;28;19925;-68
2021/06/19 03:26:04;;;;;;;;;;;22.00;90.90;;;;;;5017043;28;21968;-68
2021/06/19 03:28:29;;;;;;;;;;;22.10;91.40;;;;;;5022335;28;19932;-68
2021/06/19 03:30:55;;;;;;;;;;;22.20;91.40;;;;;;5020982;28;19963;-68
2021/06/19 03:33:21;;;;;;;;;;;22.20;91.10;;;;;;5021900;28;20411;-66
2021/06/19 03:35:47;;;;;;;;;;;22.20;91.20;;;;;;5019741;28;20003;-67
2021/06/19 03:38:13;;;;;;;;;;;22.20;90.90;;;;;;5019098;28;20337;-67
2021/06/19 03:40:38;;;;;;;;;;;22.30;91.10;;;;;;5022710;28;19920;-68
2021/06/19 03:43:04;;;;;;;;;;;22.30;91.20;;;;;;5021286;28;19921;-68
2021/06/19 03:45:31;;;;;;;;;;;22.20;91.00;;;;;;5021071;28;19948;-68
2021/06/19 03:47:57;;;;;;;;;;;22.20;91.00;;;;;;5020252;28;19925;-67
2021/06/19 03:50:24;;;;;;;;;;;22.30;91.00;;;;;;5022046;28;19953;-68
2021/06/19 03:52:49;;;;;;;;;;;22.30;90.90;;;;;;5020507;28;19935;-67
2021/06/19 03:55:15;;;;;;;;;;;22.30;90.90;;;;;;5022380;28;20402;-68
2021/06/19 03:57:40;;;;;;;;;;;22.40;90.90;;;;;;5016096;28;19972;-68
2021/06/19 04:00:09;;;;;;;;;;;22.50;90.90;;;;;;5020792;28;20785;-67
2021/06/19 04:02:35;;;;;;;;;;;22.40;91.00;;;;;;5018944;28;19913;-68
2021/06/19 04:05:00;;;;;;;;;;;22.50;90.80;;;;;;5021453;28;19921;-68
2021/06/19 04:07:26;;;;;;;;;;;22.50;90.70;;;;;;5020261;28;19975;-68
2021/06/19 04:09:53;;;;;;;;;;;22.50;90.50;;;;;;5020937;28;19935;-69
2021/06/19 04:12:19;;;;;;;;;;;22.50;90.30;;;;;;5034543;28;19936;-67
2021/06/19 04:14:48;;;;;;;;;;;22.60;90.30;;;;;;5022376;28;19913;-67
2021/06/19 04:17:14;;;;;;;;;;;22.60;90.10;;;;;;5019672;28;20010;-69
2021/06/19 04:19:39;;;;;;;;;;;22.60;90.30;;;;;;5020714;28;19992;-69
2021/06/19 04:22:06;;;;;;;;;;;22.70;90.00;;;;;;5018128;28;19913;-63
2021/06/19 04:24:32;;;;;;;;;;;22.70;90.00;;;;;;5019436;28;20032;-62
2021/06/19 04:26:58;;;;;;;;;;;22.70;89.90;;;;;;5017817;28;19937;-63
2021/06/19 04:29:23;;;;;;;;;;;22.70;89.90;;;;;;5036375;28;20395;-63
2021/06/19 04:31:49;;;;;;;;;;;22.70;89.70;;;;;;5019792;28;20395;-63
2021/06/19 04:34:14;;;;;;;;;;;22.80;89.50;;;;;;5018580;28;19940;-63
2021/06/19 04:36:40;;;;;;;;;;;22.80;89.60;;;;;;5017993;28;19917;-63
2021/06/19 04:39:05;;;;;;;;;;;22.80;89.80;;;;;;5021379;28;19913;-63
2021/06/19 04:41:50;;;;;;;;;;;22.80;89.60;;;;;;5017474;28;19913;-63
2021/06/19 04:46:50;;;;;;;;;;;22.80;89.50;;;;;;5020148;28;20248;-63
2021/06/19 04:49:15;;;;;;;;;;;22.80;89.30;;;;;;5020448;28;19940;-63
2021/06/19 04:51:41;;;;;;;;;;;22.70;89.50;;;;;;5019375;28;20348;-62
2021/06/19 04:54:07;;;;;;;;;;;22.70;89.40;;;;;;5020407;28;19916;-63
2021/06/19 04:56:33;;;;;;;;;;;22.70;89.40;;;;;;5017836;28;19920;-63
2021/06/19 04:58:59;;;;;;;;;;;22.60;89.70;;;;;;5018202;28;19917;-63
2021/06/19 05:01:24;;;;;;;;;;;22.60;89.70;;;;;;5018242;28;20352;-63
2021/06/19 05:03:51;;;;;;;;;;;22.60;89.50;;;;;;5021539;28;19982;-64
2021/06/19 05:06:18;;;;;;;;;;;22.50;89.60;;;;;;5020164;28;20382;-62
2021/06/19 05:08:43;;;;;;;;;;;22.50;89.70;;;;;;5016316;28;19970;-63
2021/06/19 05:11:09;;;;;;;;;;;22.50;89.70;;;;;;5015987;28;19923;-62
2021/06/19 05:13:34;;;;;;;;;;;22.50;89.40;;;;;;5014794;28;19917;-63
2021/06/19 05:16:00;;;;;;;;;;;22.50;89.30;;;;;;5028921;28;19921;-65
2021/06/19 05:18:25;;;;;;;;;;;22.50;89.40;;;;;;5014172;28;20040;-64
2021/06/19 05:20:51;;;;;;;;;;;22.50;88.90;;;;;;5016960;28;20044;-63
2021/06/19 05:23:16;;;;;;;;;;;22.60;88.60;;;;;;5015139;28;19948;-64
2021/06/19 05:25:42;;;;;;;;;;;22.70;88.10;;;;;;5019958;28;19929;-65
2021/06/19 05:28:07;;;;;;;;;;;22.90;88.10;;;;;;5016059;28;20004;-64
2021/06/19 05:30:33;;;;;;;;;;;23.00;87.20;;;;;;5017157;28;19944;-63
2021/06/19 05:32:58;;;;;;;;;;;23.10;86.70;;;;;;5016926;28;19921;-64
2021/06/19 05:35:24;;;;;;;;;;;23.20;86.10;;;;;;5018538;28;20460;-64
2021/06/19 05:37:50;;;;;;;;;;;23.40;86.10;;;;;;5013460;28;19927;-64
2021/06/19 05:40:15;;;;;;;;;;;23.50;84.90;;;;;;5019958;28;20393;-65
2021/06/19 05:42:41;;;;;;;;;;;23.60;84.20;;;;;;5019115;28;20019;-65
2021/06/19 05:45:07;;;;;;;;;;;23.70;83.50;;;;;;5020097;28;19988;-64
2021/06/19 05:47:32;;;;;;;;;;;23.90;82.60;;;;;;5019225;28;19940;-60
2021/06/19 05:49:58;;;;;;;;;;;24.00;81.60;;;;;;5018275;28;20405;-61
2021/06/19 05:52:25;;;;;;;;;;;24.00;81.20;;;;;;5016339;28;19924;-64
2021/06/19 05:54:51;;;;;;;;;;;24.20;80.30;;;;;;5017103;28;19921;-61
2021/06/19 05:57:16;;;;;;;;;;;24.20;79.30;;;;;;5019244;28;19932;-61
2021/06/19 05:59:42;;;;;;;;;;;24.40;79.00;;;;;;5018206;28;19921;-61
2021/06/19 06:02:08;;;;;;;;;;;24.50;79.30;;;;;;5019428;28;19980;-61
2021/06/19 06:04:34;;;;;;;;;;;24.50;78.10;;;;;;5025844;28;20008;-60
2021/06/19 06:07:00;;;;;;;;;;;24.60;77.80;;;;;;5022290;28;20009;-60
2021/06/19 06:09:26;;;;;;;;;;;24.70;77.30;;;;;;5022462;28;20382;-61
2021/06/19 06:11:52;;;;;;;;;;;24.80;76.00;;;;;;5022314;28;19917;-61
2021/06/19 06:14:17;;;;;;;;;;;25.00;76.80;;;;;;5024187;28;19913;-62
2021/06/19 06:16:43;;;;;;;;;;;25.10;75.70;;;;;;5016017;28;20007;-59
2021/06/19 06:19:08;;;;;;;;;;;25.00;74.20;;;;;;5016646;28;20452;-60
2021/06/19 06:21:34;;;;;;;;;;;25.00;74.20;;;;;;5018938;28;19936;-62
2021/06/19 06:23:59;;;;;;;;;;;25.20;73.90;;;;;;5023694;28;20541;-64
2021/06/19 06:26:25;;;;;;;;;;;25.00;73.00;;;;;;5022896;28;19974;-64
2021/06/19 06:28:51;;;;;;;;;;;25.10;73.30;;;;;;5017633;28;20059;-63
2021/06/19 06:31:16;;;;;;;;;;;25.10;70.90;;;;;;5017963;28;19924;-64
2021/06/19 06:33:41;;;;;;;;;;;25.30;71.50;;;;;;5020182;28;19917;-65
2021/06/19 06:36:07;;;;;;;;;;;25.30;69.90;;;;;;5021951;28;19921;-63
2021/06/19 06:38:33;;;;;;;;;;;25.40;69.30;;;;;;5021900;28;19921;-65
2021/06/19 06:40:58;;;;;;;;;;;25.50;69.80;;;;;;5019363;28;20182;-64
2021/06/19 06:43:24;;;;;;;;;;;25.70;70.00;;;;;;5033147;28;20324;-64
2021/06/19 06:45:49;;;;;;;;;;;25.70;67.00;;;;;;5022226;28;20038;-64
2021/06/19 06:48:15;;;;;;;;;;;25.90;67.70;;;;;;5021687;28;20574;-65
2021/06/19 06:50:41;;;;;;;;;;;25.90;65.30;;;;;;5019121;28;21033;-64
2021/06/19 06:53:06;;;;;;;;;;;25.90;66.20;;;;;;5017129;28;19917;-63
2021/06/19 06:55:32;;;;;;;;;;;26.00;63.90;;;;;;5023092;28;19913;-65
2021/06/19 06:57:57;;;;;;;;;;;26.40;64.90;;;;;;5016600;28;19976;-63
2021/06/19 07:00:23;;;;;;;;;;;26.40;64.40;;;;;;5019842;28;20032;-62
2021/06/19 07:02:48;;;;;;;;;;;26.70;63.20;;;;;;5021070;28;19921;-64
2021/06/19 07:05:14;;;;;;;;;;;26.60;60.70;;;;;;5022604;28;19917;-65
2021/06/19 07:07:39;;;;;;;;;;;26.60;61.20;;;;;;5019972;28;20316;-63
2021/06/19 07:10:06;;;;;;;;;;;26.90;61.00;;;;;;5019426;28;20027;-63
2021/06/19 07:12:31;;;;;;;;;;;27.00;60.40;;;;;;5019497;28;19985;-64
2021/06/19 07:14:57;;;;;;;;;;;26.70;58.90;;;;;;5022235;28;19921;-64
2021/06/19 07:17:22;;;;;;;;;;;26.70;60.10;;;;;;5018919;28;19917;-63
2021/06/19 07:19:48;;;;;;;;;;;26.70;61.20;;;;;;5020836;28;19913;-62
2021/06/19 07:22:13;;;;;;;;;;;27.00;59.70;;;;;;5018486;28;20552;-65
2021/06/19 07:24:39;;;;;;;;;;;26.80;59.70;;;;;;5019824;28;20376;-62
2021/06/19 07:27:05;;;;;;;;;;;26.70;60.20;;;;;;5015406;28;19975;-63
2021/06/19 07:29:31;;;;;;;;;;;26.80;60.50;;;;;;5010511;28;19993;-63
2021/06/19 07:31:56;;;;;;;;;;;26.80;60.10;;;;;;5015891;28;19925;-65
2021/06/19 07:34:21;;;;;;;;;;;26.90;60.60;;;;;;5017325;28;19925;-63
2021/06/19 07:36:47;;;;;;;;;;;26.90;59.70;;;;;;5018609;28;19913;-63
2021/06/19 07:39:13;;;;;;;;;;;27.20;59.20;;;;;;5020426;28;19993;-64
2021/06/19 07:41:39;;;;;;;;;;;27.00;58.90;;;;;;5015397;28;20044;-63
2021/06/19 07:44:05;;;;;;;;;;;27.20;59.70;;;;;;5015905;28;20021;-64
2021/06/19 07:46:30;;;;;;;;;;;27.30;58.70;;;;;;5017418;28;20004;-62
2021/06/19 07:48:56;;;;;;;;;;;27.30;57.50;;;;;;5014344;28;20325;-64
2021/06/19 07:51:21;;;;;;;;;;;27.40;58.20;;;;;;5015433;28;19925;-64
2021/06/19 07:53:47;;;;;;;;;;;27.20;55.90;;;;;;5014831;28;20364;-64
2021/06/19 07:56:12;;;;;;;;;;;27.20;56.90;;;;;;5017228;28;19921;-64
2021/06/19 07:58:38;;;;;;;;;;;27.50;57.40;;;;;;5014353;28;19983;-64
2021/06/19 08:01:03;;;;;;;;;;;27.50;55.80;;;;;;5015928;28;20168;-64
2021/06/19 08:03:29;;;;;;;;;;;27.40;56.40;;;;;;5010338;28;19992;-63
2021/06/19 08:05:55;;;;;;;;;;;27.20;57.30;;;;;;5013161;28;19968;-64
2021/06/19 08:08:21;;;;;;;;;;;27.30;55.90;;;;;;5014769;28;20027;-64
2021/06/19 08:10:49;;;;;;;;;;;27.50;56.10;;;;;;5017889;28;20011;-63
2021/06/19 08:13:14;;;;;;;;;;;27.70;56.20;;;;;;5018811;28;19993;-64
2021/06/19 08:15:40;;;;;;;;;;;27.60;56.70;;;;;;5019739;28;19927;-63
2021/06/19 08:18:05;;;;;;;;;;;27.30;56.10;;;;;;5033118;28;20059;-64
2021/06/19 08:20:31;;;;;;;;;;;27.30;55.60;;;;;;5021832;28;20003;-64
2021/06/19 08:22:57;;;;;;;;;;;27.20;55.50;;;;;;5008574;28;20546;-64
2021/06/19 08:25:23;;;;;;;;;;;27.30;56.00;;;;;;5012935;28;20403;-63
2021/06/19 08:27:48;;;;;;;;;;;27.50;55.70;;;;;;5012945;28;19992;-64
2021/06/19 08:30:14;;;;;;;;;;;27.70;55.30;;;;;;5018606;28;20394;-64
2021/06/19 08:32:40;;;;;;;;;;;28.10;56.10;;;;;;5018174;28;20334;-64
2021/06/19 08:35:06;;;;;;;;;;;27.70;55.00;;;;;;5021149;28;19921;-65
2021/06/19 08:37:32;;;;;;;;;;;27.50;56.90;;;;;;5018780;28;19925;-65
2021/06/19 08:39:58;;;;;;;;;;;27.50;56.00;;;;;;5021323;28;20013;-65
2021/06/19 08:42:24;;;;;;;;;;;27.90;56.00;;;;;;5014590;28;20415;-63
2021/06/19 08:44:51;;;;;;;;;;;27.90;54.50;;;;;;5012558;28;19921;-64
2021/06/19 08:47:16;;;;;;;;;;;27.60;54.30;;;;;;5011099;28;20008;-63
2021/06/19 08:49:42;;;;;;;;;;;27.90;54.70;;;;;;5017954;28;19995;-65
2021/06/19 08:52:08;;;;;;;;;;;28.00;54.10;;;;;;5020544;28;19925;-64
2021/06/19 08:54:40;;;;;;;;;;;28.10;53.60;;;;;;5014813;28;19923;-62
2021/06/19 08:57:06;;;;;;;;;;;28.30;54.60;;;;;;5018417;28;20575;-65
2021/06/19 08:59:32;;;;;;;;;;;28.60;52.40;;;;;;5019660;28;19921;-64
2021/06/19 09:01:57;;;;;;;;;;;28.00;53.20;;;;;;5020274;28;19920;-65
2021/06/19 09:04:23;;;;;;;;;;;28.70;53.40;;;;;;5016775;28;20004;-66
2021/06/19 09:06:48;;;;;;;;;;;28.50;53.00;;;;;;5020828;28;20434;-66
2021/06/19 09:09:15;;;;;;;;;;;28.50;53.90;;;;;;5019854;28;19914;-65
2021/06/19 09:11:47;;;;;;;;;;;27.90;54.30;;;;;;5020329;28;19921;-66
2021/06/19 09:14:16;;;;;;;;;;;27.50;55.10;;;;;;5033767;28;19917;-65
2021/06/19 09:16:43;;;;;;;;;;;27.70;55.20;;;;;;5016893;28;20518;-65
2021/06/19 09:19:26;;;;;;;;;;;27.30;56.00;;;;;;5016456;28;20336;-64
2021/06/19 09:22:09;;;;;;;;;;;27.10;56.30;;;;;;5016072;28;19921;-64
2021/06/19 09:24:48;;;;;;;;;;;27.70;55.40;;;;;;5015739;28;20261;-64
2021/06/19 09:27:32;;;;;;;;;;;28.00;54.20;;;;;;5016338;28;19917;-62
2021/06/19 09:30:14;;;;;;;;;;;28.10;53.00;;;;;;5015222;28;19924;-65
2021/06/19 09:32:46;;;;;;;;;;;28.90;51.90;;;;;;5012558;28;19921;-65
2021/06/19 09:35:12;;;;;;;;;;;28.50;53.00;;;;;;5018292;28;19917;-65
2021/06/19 09:37:38;;;;;;;;;;;27.50;54.80;;;;;;5023259;28;20373;-65
2021/06/19 09:40:18;;;;;;;;;;;27.20;56.80;;;;;;5020903;28;20391;-65
2021/06/19 09:42:44;;;;;;;;;;;27.50;56.20;;;;;;5021743;28;19913;-66
2021/06/19 09:45:16;;;;;;;;;;;27.80;54.40;;;;;;5021217;28;20430;-64
2021/06/19 09:47:42;;;;;;;;;;;28.10;53.80;;;;;;5022068;28;20253;-66
2021/06/19 09:50:08;;;;;;;;;;;28.00;53.30;;;;;;5026149;28;20279;-66
2021/06/19 09:52:33;;;;;;;;;;;28.40;52.10;;;;;;5023419;28;19975;-65
2021/06/19 09:54:59;;;;;;;;;;;28.50;52.70;;;;;;5025865;28;19992;-64
2021/06/19 09:57:39;;;;;;;;;;;28.30;52.10;;;;;;5023827;28;19913;-65
2021/06/19 10:00:05;;;;;;;;;;;28.30;52.10;;;;;;5019663;28;19916;-65
2021/06/19 10:02:30;;;;;;;;;;;28.30;51.60;;;;;;5017633;28;20254;-65
2021/06/19 10:04:57;;;;;;;;;;;28.50;51.40;;;;;;5020241;28;19913;-65
2021/06/19 10:07:23;;;;;;;;;;;28.70;50.80;;;;;;5021895;28;20352;-65
2021/06/19 10:09:49;;;;;;;;;;;28.90;49.70;;;;;;5023668;28;19956;-65
2021/06/19 10:12:20;;;;;;;;;;;28.60;49.30;;;;;;5023635;28;19913;-65
2021/06/19 10:14:45;;;;;;;;;;;29.00;50.10;;;;;;5024610;28;19987;-66
2021/06/19 10:17:14;;;;;;;;;;;29.10;49.40;;;;;;5038249;28;19913;-64
2021/06/19 10:19:41;;;;;;;;;;;28.90;50.30;;;;;;5025115;28;19925;-65
2021/06/19 10:22:07;;;;;;;;;;;30.00;49.70;;;;;;5018894;28;19917;-64
2021/06/19 10:24:36;;;;;;;;;;;30.20;50.50;;;;;;5024964;28;19917;-65
2021/06/19 10:27:02;;;;;;;;;;;29.50;49.90;;;;;;5023405;28;19936;-65
2021/06/19 10:29:27;;;;;;;;;;;29.50;48.80;;;;;;5024035;28;20336;-65
2021/06/19 10:31:54;;;;;;;;;;;29.80;48.90;;;;;;5022087;28;19962;-64
2021/06/19 10:34:22;;;;;;;;;;;30.00;48.00;;;;;;5022415;28;20006;-64
2021/06/19 10:36:48;;;;;;;;;;;30.30;47.90;;;;;;5015405;28;19940;-66
2021/06/19 10:39:29;;;;;;;;;;;29.70;47.00;;;;;;5023230;28;20054;-65
2021/06/19 10:41:54;;;;;;;;;;;29.70;48.30;;;;;;5022319;28;20454;-65
2021/06/19 10:44:38;;;;;;;;;;;30.20;49.20;;;;;;5024500;28;19975;-64
2021/06/19 10:47:04;;;;;;;;;;;29.30;47.20;;;;;;5023309;28;19919;-64
2021/06/19 10:49:29;;;;;;;;;;;29.60;47.70;;;;;;5024300;28;20286;-65
2021/06/19 10:52:24;;;;;;;;;;;30.00;46.50;;;;;;5021700;28;19914;-65
2021/06/19 10:55:08;;;;;;;;;;;29.30;47.80;;;;;;5031778;28;19913;-66
2021/06/19 10:57:48;;;;;;;;;;;30.00;46.40;;;;;;5022842;28;19916;-65
2021/06/19 11:00:34;;;;;;;;;;;30.10;45.30;;;;;;5022431;28;20008;-66
2021/06/19 11:03:01;;;;;;;;;;;30.10;47.20;;;;;;5019435;28;19913;-65
2021/06/19 11:05:41;;;;;;;;;;;30.00;45.70;;;;;;5024305;28;20240;-65
2021/06/19 11:08:08;;;;;;;;;;;29.70;46.30;;;;;;5018282;28;19913;-65
2021/06/19 11:10:39;;;;;;;;;;;30.40;45.90;;;;;;5023631;28;19913;-66
2021/06/19 11:13:25;;;;;;;;;;;30.00;47.80;;;;;;5022371;28;19913;-66
2021/06/19 11:15:50;;;;;;;;;;;30.20;46.50;;;;;;5025126;28;20025;-63
2021/06/19 11:18:36;;;;;;;;;;;30.10;46.40;;;;;;5022173;28;20060;-65
2021/06/19 11:21:11;;;;;;;;;;;30.00;45.30;;;;;;5022261;28;19913;-65
2021/06/19 11:24:07;;;;;;;;;;;30.40;45.80;;;;;;5017108;28;19949;-64
2021/06/19 11:26:53;;;;;;;;;;;30.80;44.90;;;;;;5018323;28;20292;-65
2021/06/19 11:29:34;;;;;;;;;;;30.40;45.80;;;;;;5023496;28;19910;-66
2021/06/19 11:32:18;;;;;;;;;;;30.50;45.80;;;;;;5022023;28;19913;-65
2021/06/19 11:34:43;;;;;;;;;;;31.00;44.30;;;;;;5019745;28;19947;-64
2021/06/19 11:37:09;;;;;;;;;;;30.90;46.30;;;;;;5021453;28;20019;-66
2021/06/19 11:39:35;;;;;;;;;;;31.10;43.60;;;;;;5023522;28;19975;-64
2021/06/19 11:42:00;;;;;;;;;;;30.40;43.50;;;;;;5021457;28;20486;-65
2021/06/19 11:44:31;;;;;;;;;;;30.90;43.60;;;;;;5023433;28;20000;-66
2021/06/19 11:46:57;;;;;;;;;;;31.50;42.40;;;;;;5020039;28;19917;-65
2021/06/19 11:49:24;;;;;;;;;;;31.80;42.40;;;;;;5022737;28;19909;-66
2021/06/19 11:51:50;;;;;;;;;;;31.80;40.10;;;;;;5021873;28;19928;-65
2021/06/19 11:54:16;;;;;;;;;;;31.30;41.80;;;;;;5023353;28;19913;-65
2021/06/19 11:56:42;;;;;;;;;;;31.20;42.80;;;;;;5021052;28;19917;-64
2021/06/19 11:59:08;;;;;;;;;;;31.40;41.40;;;;;;5016901;28;19935;-64
2021/06/19 12:01:37;;;;;;;;;;;31.70;42.20;;;;;;5009023;28;19913;-65
2021/06/19 12:04:04;;;;;;;;;;;32.00;41.10;;;;;;5003351;28;19921;-65
2021/06/19 12:06:31;;;;;;;;;;;32.00;40.60;;;;;;5012028;28;20549;-64
2021/06/19 12:08:56;;;;;;;;;;;32.60;41.60;;;;;;5015810;28;19909;-65
2021/06/19 12:11:28;;;;;;;;;;;33.10;38.80;;;;;;5010787;28;20319;-64
2021/06/19 12:13:54;;;;;;;;;;;32.50;37.80;;;;;;5010822;28;20267;-65
2021/06/19 12:16:26;;;;;;;;;;;32.50;39.30;;;;;;5008422;28;19918;-66
2021/06/19 12:18:55;;;;;;;;;;;32.80;38.90;;;;;;5007226;28;20091;-65
2021/06/19 12:21:28;;;;;;;;;;;33.30;39.10;;;;;;5012836;28;20281;-65
2021/06/19 12:23:54;;;;;;;;;;;33.20;38.60;;;;;;5011482;28;19925;-65
2021/06/19 12:26:19;;;;;;;;;;;33.00;40.40;;;;;;5012912;28;20252;-65
2021/06/19 12:28:46;;;;;;;;;;;33.00;38.00;;;;;;5011530;28;19917;-65
2021/06/19 12:31:13;;;;;;;;;;;32.90;37.90;;;;;;5012282;28;19960;-65
2021/06/19 12:33:39;;;;;;;;;;;32.90;38.20;;;;;;5006443;28;19991;-65
2021/06/19 12:36:07;;;;;;;;;;;33.40;38.40;;;;;;5013155;28;19921;-65
2021/06/19 12:38:32;;;;;;;;;;;33.00;38.40;;;;;;5008775;28;20076;-65
2021/06/19 12:40:58;;;;;;;;;;;33.00;37.70;;;;;;5013654;28;20074;-65
2021/06/19 12:43:24;;;;;;;;;;;33.30;38.60;;;;;;5011613;28;19913;-66
2021/06/19 12:45:50;;;;;;;;;;;33.80;38.10;;;;;;5013246;28;20012;-65
2021/06/19 12:48:27;;;;;;;;;;;34.10;35.70;;;;;;5009677;28;20071;-66
2021/06/19 12:50:56;;;;;;;;;;;34.40;35.00;;;;;;5012367;28;20331;-66
2021/06/19 12:53:48;;;;;;;;;;;33.80;36.00;;;;;;5006254;28;20092;-65
2021/06/19 12:56:13;;;;;;;;;;;33.40;36.60;;;;;;5010795;28;19921;-65
2021/06/19 12:58:40;;;;;;;;;;;33.40;35.90;;;;;;5008244;28;19979;-65
2021/06/19 13:01:20;;;;;;;;;;;33.50;37.10;;;;;;5009323;28;20313;-64
2021/06/19 13:03:48;;;;;;;;;;;34.40;36.60;;;;;;5008658;28;20371;-65
2021/06/19 13:06:28;;;;;;;;;;;34.20;36.10;;;;;;5032524;28;19909;-66
2021/06/19 13:08:54;;;;;;;;;;;34.00;36.20;;;;;;5010146;28;19983;-65
2021/06/19 13:11:22;;;;;;;;;;;34.20;35.20;;;;;;5013815;28;20136;-65
2021/06/19 13:13:48;;;;;;;;;;;34.50;35.00;;;;;;5010126;28;20335;-66
2021/06/19 13:16:15;;;;;;;;;;;34.10;35.70;;;;;;5014485;28;20448;-66
2021/06/19 13:18:40;;;;;;;;;;;34.20;36.30;;;;;;5005688;28;20080;-66
2021/06/19 13:21:06;;;;;;;;;;;34.40;36.30;;;;;;5008978;28;19975;-65
2021/06/19 13:23:31;;;;;;;;;;;34.90;35.60;;;;;;5009183;28;19970;-66
2021/06/19 13:25:59;;;;;;;;;;;33.80;35.00;;;;;;5015376;28;20003;-65
2021/06/19 13:28:25;;;;;;;;;;;34.80;34.00;;;;;;5007340;28;19923;-64
2021/06/19 13:31:06;;;;;;;;;;;34.50;35.20;;;;;;5013246;28;20347;-66
2021/06/19 13:33:31;;;;;;;;;;;34.30;35.00;;;;;;5007713;28;19917;-64
2021/06/19 13:35:57;;;;;;;;;;;34.30;34.90;;;;;;5005176;28;19948;-64
2021/06/19 13:38:22;;;;;;;;;;;34.40;34.50;;;;;;5004121;28;20182;-65
2021/06/19 13:40:48;;;;;;;;;;;34.50;33.60;;;;;;5013420;28;19979;-64
2021/06/19 13:43:13;;;;;;;;;;;34.70;35.30;;;;;;5006054;28;19979;-66
2021/06/19 13:45:39;;;;;;;;;;;34.60;33.90;;;;;;5012006;28;20392;-65
2021/06/19 13:48:04;;;;;;;;;;;35.20;34.10;;;;;;5005585;28;19913;-64
2021/06/19 13:50:31;;;;;;;;;;;35.80;32.40;;;;;;5008794;28;19917;-67
2021/06/19 13:52:57;;;;;;;;;;;36.70;31.40;;;;;;5004277;28;19977;-64
2021/06/19 13:55:26;;;;;;;;;;;36.20;32.30;;;;;;5009216;28;20063;-66
2021/06/19 13:57:51;;;;;;;;;;;36.10;32.30;;;;;;5010323;28;19989;-66
2021/06/19 14:00:17;;;;;;;;;;;36.40;31.40;;;;;;5008357;28;20257;-66
2021/06/19 14:02:43;;;;;;;;;;;36.10;32.80;;;;;;5006989;28;20007;-66
2021/06/19 14:05:08;;;;;;;;;;;36.30;31.00;;;;;;5011966;28;20061;-66
2021/06/19 14:07:34;;;;;;;;;;;36.60;31.30;;;;;;5009203;28;19971;-65
2021/06/19 14:10:00;;;;;;;;;;;36.60;30.00;;;;;;5009332;28;20088;-66
2021/06/19 14:12:25;;;;;;;;;;;36.90;30.70;;;;;;5008738;28;19940;-66
2021/06/19 14:14:51;;;;;;;;;;;36.20;28.80;;;;;;5008021;28;19976;-66
2021/06/19 14:17:16;;;;;;;;;;;36.20;28.80;;;;;;5026071;28;19917;-65
2021/06/19 14:19:42;;;;;;;;;;;36.40;30.00;;;;;;5008927;28;20399;-64